Time;durP1;ratioP1;P1;durP2;ratioP2;P2;SDS_P1;SDS_P2;PMS_P1;PMS_P2;Temp;Humidity;BMP_temperature;BMP_pressure;BME280_temperature;BME280_humidity;BME280_pressure;Samples;Min_cycle;Max_cycle;Signal;HPM_P1;HPM_P2
2023/04/13 00:00:26;;;;;;;0.80;0.57;;;;;;;7.28;100.00;99163.34;5043048;28;20207;-73
2023/04/13 00:02:52;;;;;;;1.27;0.60;;;;;;;7.28;100.00;99167.59;5041274;28;20203;-73
2023/04/13 00:05:18;;;;;;;1.63;0.70;;;;;;;7.21;100.00;99159.13;5032310;28;20210;-76
2023/04/13 00:07:45;;;;;;;1.00;0.60;;;;;;;7.19;100.00;99166.00;5032995;28;20286;-73
2023/04/13 00:10:10;;;;;;;2.20;0.87;;;;;;;7.22;100.00;99160.00;5041746;28;20670;-74
2023/04/13 00:12:37;;;;;;;1.80;0.70;;;;;;;7.24;100.00;99163.41;5038052;28;20192;-73
2023/04/13 00:15:04;;;;;;;1.17;0.70;;;;;;;7.22;100.00;99160.00;5030588;28;20206;-72
2023/04/13 00:17:30;;;;;;;1.97;0.80;;;;;;;7.21;100.00;99166.00;5039797;28;20603;-74
2023/04/13 00:19:58;;;;;;;0.90;0.70;;;;;;;7.19;100.00;99162.59;5035717;28;20195;-72
2023/04/13 00:22:25;;;;;;;0.80;0.60;;;;;;;7.14;100.00;99155.78;5044563;28;20239;-74
2023/04/13 00:24:54;;;;;;;1.40;0.80;;;;;;;7.12;100.00;99157.53;5040659;28;20356;-73
2023/04/13 00:27:20;;;;;;;0.87;0.70;;;;;;;7.10;100.00;99155.84;5033649;28;20214;-72
2023/04/13 00:29:45;;;;;;;1.43;0.60;;;;;;;7.08;100.00;99148.16;5035344;28;20645;-73
2023/04/13 00:32:11;;;;;;;0.70;0.60;;;;;;;7.07;100.00;99149.03;5040842;28;20224;-72
2023/04/13 00:34:37;;;;;;;0.70;0.70;;;;;;;7.04;100.00;99141.34;5036394;28;20885;-74
2023/04/13 00:37:02;;;;;;;2.40;0.70;;;;;;;7.04;100.00;99145.63;5035803;28;20187;-72
2023/04/13 00:39:30;;;;;;;1.53;0.80;;;;;;;7.02;100.00;99145.66;5044580;28;20184;-73
2023/04/13 00:42:00;;;;;;;2.03;0.93;;;;;;;6.99;100.00;99141.41;5034923;28;20246;-72
2023/04/13 00:44:27;;;;;;;1.00;0.70;;;;;;;6.95;100.00;99144.88;5050314;28;20307;-73
2023/04/13 00:46:53;;;;;;;1.17;0.77;;;;;;;6.92;100.00;99147.50;5035971;28;20565;-73
2023/04/13 00:49:21;;;;;;;1.87;1.00;;;;;;;6.90;100.00;99141.50;5029177;28;20298;-73
2023/04/13 00:51:47;;;;;;;2.03;0.80;;;;;;;6.85;100.00;99136.44;5034847;28;20678;-72
2023/04/13 00:54:13;;;;;;;0.80;0.63;;;;;;;6.86;100.00;99140.72;5039011;28;20208;-74
2023/04/13 00:56:41;;;;;;;1.03;0.60;;;;;;;6.88;100.00;99140.72;5050205;28;20556;-72
2023/04/13 00:59:10;;;;;;;1.60;0.77;;;;;;;6.84;100.00;99144.19;5037481;28;20184;-73
2023/04/13 01:01:45;;;;;;;2.03;0.97;;;;;;;6.83;100.00;99147.63;5057727;28;20846;-72
2023/04/13 01:04:17;;;;;;;1.23;0.50;;;;;;;6.81;100.00;99145.03;5039714;28;20241;-72
2023/04/13 01:06:50;;;;;;;1.57;0.70;;;;;;;6.80;100.00;99147.66;5033456;28;20275;-73
2023/04/13 01:09:20;;;;;;;1.00;0.87;;;;;;;6.77;100.00;99151.13;5031435;28;20249;-75
2023/04/13 01:12:04;;;;;;;0.93;0.70;;;;;;;6.73;100.00;99152.00;5037359;28;20188;-73
2023/04/13 01:14:40;;;;;;;1.50;0.90;;;;;;;6.72;100.00;99145.16;5032653;28;20222;-72
2023/04/13 01:17:15;;;;;;;1.30;0.70;;;;;;;6.68;100.00;99151.19;5039435;28;20185;-72
2023/04/13 01:19:51;;;;;;;1.33;0.83;;;;;;;6.68;100.00;99152.06;5040331;28;20938;-74
2023/04/13 01:22:24;;;;;;;2.47;0.57;;;;;;;6.65;100.00;99143.56;5053970;28;20798;-75
2023/04/13 01:25:21;;;;;;;0.83;0.70;;;;;;;6.65;100.00;99146.13;5034861;28;20252;-71
2023/04/13 01:27:50;;;;;;;1.97;1.13;;;;;;;6.69;100.00;99153.78;5027855;28;20228;-73
2023/04/13 01:30:20;;;;;;;1.43;0.67;;;;;;;6.68;100.00;99154.63;5034228;28;20308;-72
2023/04/13 01:32:46;;;;;;;0.90;0.77;;;;;;;6.67;100.00;99146.94;5040020;28;20322;-72
2023/04/13 01:35:12;;;;;;;1.57;0.67;;;;;;;6.67;100.00;99152.06;5030657;28;20324;-73
2023/04/13 01:37:40;;;;;;;3.57;0.70;;;;;;;6.67;100.00;99154.63;5037563;28;21046;-74
2023/04/13 01:40:10;;;;;;;1.33;0.83;;;;;;;6.66;100.00;99158.06;5027342;28;20293;-73
2023/04/13 01:42:36;;;;;;;2.80;1.00;;;;;;;6.66;100.00;99158.94;5043506;28;20190;-75
2023/04/13 01:45:04;;;;;;;1.33;0.70;;;;;;;6.65;100.00;99159.81;5033065;28;20216;-73
2023/04/13 01:47:33;;;;;;;2.50;1.07;;;;;;;6.68;100.00;99157.22;5033521;28;20212;-73
2023/04/13 01:50:16;;;;;;;2.30;0.70;;;;;;;6.73;100.00;99154.59;5030837;28;20183;-74
2023/04/13 01:52:43;;;;;;;1.83;0.87;;;;;;;6.74;100.00;99152.84;5044871;28;20561;-73
2023/04/13 01:55:11;;;;;;;1.40;0.80;;;;;;;6.75;100.00;99152.84;5038243;28;20214;-73
2023/04/13 01:57:39;;;;;;;1.37;0.80;;;;;;;6.78;100.00;99146.81;5035702;28;20676;-73
2023/04/13 02:00:10;;;;;;;3.33;1.20;;;;;;;6.80;100.00;99145.06;5036663;28;20201;-73
2023/04/13 02:02:36;;;;;;;1.53;0.93;;;;;;;6.78;100.00;99144.25;5034075;28;20206;-73
2023/04/13 02:05:02;;;;;;;1.70;0.60;;;;;;;6.76;100.00;99145.97;5028377;28;20209;-74
2023/04/13 02:07:27;;;;;;;2.03;1.00;;;;;;;6.79;100.00;99146.81;5038175;28;20216;-71
2023/04/13 02:09:53;;;;;;;2.83;1.00;;;;;;;6.78;100.00;99145.09;5041050;28;20216;-73
2023/04/13 02:12:19;;;;;;;1.53;0.80;;;;;;;6.77;100.00;99138.25;5036713;28;20218;-73
2023/04/13 02:14:44;;;;;;;1.77;0.83;;;;;;;6.73;100.00;99148.59;5044693;28;20288;-73
2023/04/13 02:17:10;;;;;;;2.67;1.17;;;;;;;6.73;100.00;99140.88;5035746;28;20201;-72
2023/04/13 02:19:35;;;;;;;2.10;0.93;;;;;;;6.76;100.00;99140.81;5041494;28;20303;-73
2023/04/13 02:22:00;;;;;;;2.53;1.03;;;;;;;6.77;100.00;99140.81;5034298;28;20191;-71
2023/04/13 02:24:26;;;;;;;2.20;0.90;;;;;;;6.85;100.00;99140.75;5031314;28;20649;-72
2023/04/13 02:26:51;;;;;;;2.77;1.20;;;;;;;6.92;100.00;99144.91;5041118;28;20259;-72
2023/04/13 02:29:16;;;;;;;2.40;0.87;;;;;;;7.01;100.00;99144.81;5037985;28;20187;-73
2023/04/13 02:31:43;;;;;;;3.47;1.20;;;;;;;7.10;100.00;99140.41;5045559;28;20703;-72
2023/04/13 02:34:10;;;;;;;1.20;0.80;;;;;;;7.13;100.00;99143.78;5033530;28;20275;-73
2023/04/13 02:36:35;;;;;;;2.67;0.87;;;;;;;7.11;100.00;99142.94;5036379;28;21715;-70
2023/04/13 02:39:00;;;;;;;2.30;1.10;;;;;;;7.11;99.98;99150.66;5035754;28;20189;-73
2023/04/13 02:41:25;;;;;;;3.60;1.07;;;;;;;7.06;100.00;99152.47;5036888;28;20187;-74
2023/04/13 02:43:51;;;;;;;2.70;0.83;;;;;;;7.10;99.93;99161.00;5040232;28;20213;-74
2023/04/13 02:46:17;;;;;;;2.03;1.10;;;;;;;7.11;100.00;99160.97;5035461;28;20206;-73
2023/04/13 02:48:42;;;;;;;1.77;1.03;;;;;;;7.20;100.00;99164.31;5033268;28;20187;-72
2023/04/13 02:51:07;;;;;;;3.30;1.13;;;;;;;7.34;99.88;99162.41;5029584;28;20198;-74
2023/04/13 02:53:32;;;;;;;2.70;1.03;;;;;;;7.40;98.86;99170.03;5033533;28;20247;-75
2023/04/13 02:55:58;;;;;;;3.77;1.17;;;;;;;7.43;98.79;99164.00;5031521;28;20680;-73
2023/04/13 02:58:24;;;;;;;2.13;0.90;;;;;;;7.45;99.00;99160.50;5032887;28;20211;-73
2023/04/13 03:00:49;;;;;;;2.17;1.20;;;;;;;7.50;98.83;99170.72;5049540;28;20196;-74
2023/04/13 03:03:15;;;;;;;1.80;1.10;;;;;;;7.58;97.81;99174.06;5055419;28;20201;-73
2023/04/13 03:05:41;;;;;;;1.93;0.93;;;;;;;7.58;97.94;99174.06;5034267;28;20206;-74
2023/04/13 03:08:09;;;;;;;2.53;1.20;;;;;;;7.63;96.98;99174.88;5036342;28;20210;-75
2023/04/13 03:10:36;;;;;;;2.17;0.90;;;;;;;7.65;96.62;99176.53;5033874;28;20212;-73
2023/04/13 03:13:02;;;;;;;1.73;0.90;;;;;;;7.62;96.35;99165.44;5034039;28;20187;-73
2023/04/13 03:15:28;;;;;;;3.97;1.10;;;;;;;7.68;96.05;99173.91;5029662;28;20715;-72
2023/04/13 03:17:53;;;;;;;1.73;0.97;;;;;;;7.64;96.62;99178.28;5028418;28;20229;-73
2023/04/13 03:20:22;;;;;;;2.53;1.23;;;;;;;7.67;95.88;99169.63;5029754;28;20217;-73
2023/04/13 03:22:47;;;;;;;3.83;1.30;;;;;;;7.71;95.61;99167.03;5034735;28;20190;-73
2023/04/13 03:25:13;;;;;;;3.00;1.20;;;;;;;7.68;95.73;99163.63;5028565;28;22173;-74
2023/04/13 03:27:38;;;;;;;4.30;1.00;;;;;;;7.71;95.25;99171.31;5034285;28;20244;-74
2023/04/13 03:30:04;;;;;;;3.80;1.10;;;;;;;7.71;95.09;99172.16;5030487;28;20195;-73
2023/04/13 03:32:31;;;;;;;2.60;1.13;;;;;;;7.71;94.95;99174.75;5042305;28;20658;-73
2023/04/13 03:34:56;;;;;;;2.93;1.33;;;;;;;7.74;94.75;99176.41;5033900;28;20217;-76
2023/04/13 03:37:22;;;;;;;2.73;1.10;;;;;;;7.73;94.48;99169.56;5040928;28;20190;-73
2023/04/13 03:39:47;;;;;;;2.63;1.30;;;;;;;7.75;94.29;99170.38;5037681;28;20224;-73
2023/04/13 03:42:13;;;;;;;3.97;1.50;;;;;;;7.78;93.00;99178.06;5036894;28;20189;-74
2023/04/13 03:44:38;;;;;;;2.63;1.10;;;;;;;7.78;93.10;99181.50;5036355;28;20238;-74
2023/04/13 03:47:03;;;;;;;3.00;0.90;;;;;;;7.81;92.99;99185.72;5039328;28;20301;-73
2023/04/13 03:49:29;;;;;;;1.67;1.00;;;;;;;7.87;91.66;99184.78;5040319;28;20692;-73
2023/04/13 03:51:55;;;;;;;4.93;1.40;;;;;;;7.90;90.96;99182.16;5031581;28;20275;-72
2023/04/13 03:54:20;;;;;;;3.00;1.20;;;;;;;7.88;90.87;99189.06;5035561;28;20224;-74
2023/04/13 03:56:46;;;;;;;2.63;1.37;;;;;;;7.88;91.14;99189.06;5032856;28;20683;-73
2023/04/13 03:59:11;;;;;;;1.93;1.20;;;;;;;7.90;90.35;99192.47;5034440;28;20677;-74
2023/04/13 04:01:38;;;;;;;3.17;0.97;;;;;;;7.86;91.43;99191.69;5035538;28;20579;-72
2023/04/13 04:04:03;;;;;;;2.60;1.50;;;;;;;7.88;92.00;99196.78;5036587;28;20183;-73
2023/04/13 04:06:28;;;;;;;2.50;1.30;;;;;;;7.91;91.28;99197.63;5029627;28;20364;-73
2023/04/13 04:08:53;;;;;;;5.10;1.60;;;;;;;7.93;91.24;99193.28;5031074;28;20197;-74
2023/04/13 04:11:21;;;;;;;3.57;1.20;;;;;;;7.93;90.57;99203.59;5033464;28;20192;-73
2023/04/13 04:13:46;;;;;;;3.77;1.57;;;;;;;7.96;89.89;99204.41;5043082;28;20888;-73
2023/04/13 04:16:11;;;;;;;3.23;1.00;;;;;;;7.93;90.60;99208.75;5033452;28;20342;-73
2023/04/13 04:18:37;;;;;;;3.53;1.30;;;;;;;7.94;91.01;99207.00;5044674;28;20181;-74
2023/04/13 04:21:03;;;;;;;3.80;1.80;;;;;;;7.96;90.85;99212.13;5040980;28;20183;-73
2023/04/13 04:23:29;;;;;;;2.77;1.30;;;;;;;7.98;90.64;99211.25;5046480;28;20634;-73
2023/04/13 04:25:58;;;;;;;2.50;1.17;;;;;;;7.96;90.77;99206.97;5036028;28;20235;-73
2023/04/13 04:28:23;;;;;;;3.20;1.10;;;;;;;7.95;91.10;99213.88;5037534;28;20185;-75
2023/04/13 04:30:55;;;;;;;3.93;1.23;;;;;;;7.99;90.04;99215.53;5043594;28;20755;-72
2023/04/13 04:33:23;;;;;;;3.40;1.47;;;;;;;7.98;90.45;99225.84;5043154;28;20178;-74
2023/04/13 04:35:50;;;;;;;2.70;1.43;;;;;;;7.97;91.00;99212.13;5037011;28;20261;-73
2023/04/13 04:38:16;;;;;;;3.27;1.20;;;;;;;7.97;90.98;99224.13;5049033;28;20184;-74
2023/04/13 04:40:45;;;;;;;2.77;1.40;;;;;;;8.00;91.05;99230.13;5033043;28;20197;-73
2023/04/13 04:43:14;;;;;;;3.67;1.33;;;;;;;8.00;91.09;99231.81;5037565;28;20190;-73
2023/04/13 04:45:42;;;;;;;3.33;1.20;;;;;;;7.98;90.84;99234.44;5047357;28;20205;-73
2023/04/13 04:48:08;;;;;;;2.50;1.33;;;;;;;8.00;90.88;99239.56;5030127;28;20712;-73
2023/04/13 04:50:36;;;;;;;5.90;1.60;;;;;;;8.01;90.89;99243.84;5032868;28;20189;-72
2023/04/13 04:53:01;;;;;;;3.33;1.63;;;;;;;8.02;90.87;99245.53;5032929;28;20648;-73
2023/04/13 04:55:27;;;;;;;6.07;1.60;;;;;;;8.06;89.93;99248.03;5032455;28;20207;-74
2023/04/13 04:57:52;;;;;;;4.23;1.43;;;;;;;8.02;90.36;99246.38;5034527;28;20237;-73
2023/04/13 05:00:17;;;;;;;5.20;1.70;;;;;;;8.03;89.78;99253.22;5036856;28;20274;-75
2023/04/13 05:02:43;;;;;;;4.57;1.70;;;;;;;8.05;89.66;99251.50;5033935;28;20199;-73
2023/04/13 05:05:10;;;;;;;5.13;1.53;;;;;;;8.09;89.08;99254.91;5036366;28;20211;-71
2023/04/13 05:07:36;;;;;;;2.70;1.40;;;;;;;8.06;89.15;99255.78;5031847;28;20570;-73
2023/04/13 05:10:02;;;;;;;3.67;1.40;;;;;;;8.06;89.50;99260.94;5034183;28;20195;-71
2023/04/13 05:12:27;;;;;;;4.57;1.77;;;;;;;8.08;89.40;99255.75;5037207;28;20180;-72
2023/04/13 05:14:53;;;;;;;3.70;1.47;;;;;;;8.11;89.14;99265.16;5036643;28;20204;-72
2023/04/13 05:17:18;;;;;;;3.17;1.23;;;;;;;8.11;89.30;99271.16;5035442;28;20556;-75
2023/04/13 05:19:44;;;;;;;3.10;1.40;;;;;;;8.18;88.79;99269.34;5038549;28;20193;-74
2023/04/13 05:22:11;;;;;;;5.10;1.40;;;;;;;8.16;89.11;99282.25;5032786;28;20217;-73
2023/04/13 05:24:36;;;;;;;3.70;1.40;;;;;;;8.17;88.94;99280.50;5032165;28;20289;-73
2023/04/13 05:27:02;;;;;;;4.93;1.70;;;;;;;8.21;89.23;99277.03;5036351;28;20295;-73
2023/04/13 05:29:27;;;;;;;3.43;1.60;;;;;;;8.20;89.86;99273.59;5029636;28;20195;-72
2023/04/13 05:31:52;;;;;;;2.47;1.60;;;;;;;8.26;89.00;99264.06;5028630;28;20194;-73
2023/04/13 05:34:18;;;;;;;5.90;1.80;;;;;;;8.24;89.57;99280.41;5045682;28;20217;-71
2023/04/13 05:36:43;;;;;;;3.40;1.63;;;;;;;8.25;89.55;99270.97;5035080;28;20607;-72
2023/04/13 05:39:09;;;;;;;6.27;1.90;;;;;;;8.25;89.76;99283.84;5028738;28;20194;-75
2023/04/13 05:41:35;;;;;;;4.97;1.90;;;;;;;8.28;89.82;99276.06;5034357;28;20191;-73
2023/04/13 05:44:00;;;;;;;8.37;2.07;;;;;;;8.37;89.68;99272.50;5036967;28;20261;-74
2023/04/13 05:46:26;;;;;;;4.07;1.80;;;;;;;8.42;88.93;99275.00;5032116;28;20913;-75
2023/04/13 05:48:52;;;;;;;3.97;1.60;;;;;;;8.48;88.89;99278.34;5032772;28;20204;-73
2023/04/13 05:51:17;;;;;;;3.57;1.50;;;;;;;8.49;88.71;99285.22;5029274;28;20740;-74
2023/04/13 05:53:42;;;;;;;3.73;1.80;;;;;;;8.57;89.09;99289.38;5038688;28;20676;-72
2023/04/13 05:56:08;;;;;;;3.97;1.60;;;;;;;8.60;88.41;99291.91;5033799;28;20203;-71
2023/04/13 05:58:33;;;;;;;3.40;1.40;;;;;;;8.59;88.75;99295.34;5027418;28;20206;-74
2023/04/13 06:01:00;;;;;;;3.63;1.60;;;;;;;8.57;89.03;99286.78;5025432;28;20766;-73
2023/04/13 06:03:28;;;;;;;3.27;1.37;;;;;;;8.60;88.42;99286.75;5038713;28;20183;-73
2023/04/13 06:05:54;;;;;;;4.53;1.73;;;;;;;8.58;88.89;99289.38;5028524;28;20213;-75
2023/04/13 06:08:20;;;;;;;3.50;1.37;;;;;;;8.54;89.16;99285.13;5024541;28;20200;-71
2023/04/13 06:10:47;;;;;;;5.03;1.70;;;;;;;8.59;89.32;99292.78;5033396;28;20210;-73
2023/04/13 06:13:12;;;;;;;3.37;1.23;;;;;;;8.62;89.10;99300.47;5032270;28;20539;-74
2023/04/13 06:15:38;;;;;;;7.90;4.03;;;;;;;8.65;89.49;99297.84;5042551;28;20208;-73
2023/04/13 06:18:03;;;;;;;14.87;8.67;;;;;;;8.69;89.25;99296.94;5037443;28;20197;-73
2023/04/13 06:20:30;;;;;;;7.90;3.60;;;;;;;8.73;88.88;99290.81;5029519;28;20260;-75
2023/04/13 06:22:55;;;;;;;5.93;2.03;;;;;;;8.74;89.01;99302.00;5039182;28;20179;-72
2023/04/13 06:25:21;;;;;;;3.83;1.60;;;;;;;8.72;88.85;99299.44;5040051;28;20203;-74
2023/04/13 06:27:48;;;;;;;6.20;2.23;;;;;;;8.74;88.64;99297.69;5042954;28;20241;-70
2023/04/13 06:30:14;;;;;;;3.37;1.57;;;;;;;8.76;89.07;99301.09;5037441;28;20187;-76
2023/04/13 06:32:40;;;;;;;4.27;1.60;;;;;;;8.79;88.94;99292.44;5034647;28;20189;-77
2023/04/13 06:35:05;;;;;;;6.30;1.70;;;;;;;8.84;88.32;99306.09;5035240;28;20230;-74
2023/04/13 06:37:32;;;;;;;5.03;2.50;;;;;;;8.85;88.23;99297.50;5041598;28;20332;-73
2023/04/13 06:39:57;;;;;;;4.90;2.20;;;;;;;8.82;88.71;99308.72;5038693;28;20185;-73
2023/04/13 06:42:23;;;;;;;6.47;2.30;;;;;;;8.84;89.24;99309.56;5049844;28;20195;-74
2023/04/13 06:44:48;;;;;;;3.97;2.00;;;;;;;8.96;88.96;99298.16;5032767;28;20692;-74
2023/04/13 06:47:14;;;;;;;6.53;2.43;;;;;;;9.13;88.41;99304.72;5030571;28;20213;-72
2023/04/13 06:49:40;;;;;;;2.83;1.60;;;;;;;9.27;87.26;99297.56;5037508;28;20179;-73
2023/04/13 06:52:05;;;;;;;3.83;2.10;;;;;;;9.39;87.40;99308.53;5036041;28;20190;-73
2023/04/13 06:54:31;;;;;;;3.77;2.27;;;;;;;9.49;87.59;99304.03;5037895;28;20259;-72
2023/04/13 06:56:56;;;;;;;4.07;1.90;;;;;;;9.71;87.52;99309.59;5031858;28;20535;-74
2023/04/13 06:59:22;;;;;;;4.17;1.90;;;;;;;9.95;85.78;99305.63;5037756;28;20183;-71
2023/04/13 07:01:47;;;;;;;2.30;1.37;;;;;;;10.07;84.68;99309.69;5049322;28;20269;-72
2023/04/13 07:04:12;;;;;;;3.73;1.63;;;;;;;10.12;83.86;99305.28;5038803;28;20667;-73
2023/04/13 07:06:38;;;;;;;3.93;1.70;;;;;;;10.18;83.70;99317.22;5046332;28;20214;-74
2023/04/13 07:09:03;;;;;;;4.07;1.90;;;;;;;10.35;83.68;99314.22;5036677;28;20182;-74
2023/04/13 07:11:28;;;;;;;4.53;1.90;;;;;;;10.56;82.86;99314.63;5039398;28;20281;-73
2023/04/13 07:13:54;;;;;;;2.40;1.40;;;;;;;10.68;81.98;99311.72;5045908;28;20189;-72
2023/04/13 07:16:19;;;;;;;6.67;2.17;;;;;;;10.84;81.12;99307.00;5034160;28;20186;-72
2023/04/13 07:18:45;;;;;;;3.70;1.40;;;;;;;11.42;80.41;99311.50;5041092;28;20187;-72
2023/04/13 07:21:10;;;;;;;3.77;1.50;;;;;;;12.17;78.91;99300.69;5033870;28;20198;-72
2023/04/13 07:23:36;;;;;;;5.67;2.03;;;;;;;12.78;76.75;99306.50;5049514;28;20238;-73
2023/04/13 07:26:01;;;;;;;5.33;1.70;;;;;;;13.20;74.82;99305.91;5038283;28;20222;-72
2023/04/13 07:28:27;;;;;;;5.20;3.40;;;;;;;13.59;74.63;99298.53;5048461;28;20214;-75
2023/04/13 07:30:52;;;;;;;2.93;1.57;;;;;;;13.88;73.21;99307.81;5033282;28;20201;-72
2023/04/13 07:33:17;;;;;;;6.73;2.10;;;;;;;14.09;72.53;99305.28;5047655;28;20199;-72
2023/04/13 07:35:43;;;;;;;4.63;1.80;;;;;;;14.26;71.56;99296.81;5049910;28;20251;-73
2023/04/13 07:38:08;;;;;;;7.77;1.70;;;;;;;14.40;71.45;99291.06;5042517;28;20185;-72
2023/04/13 07:40:34;;;;;;;3.30;1.60;;;;;;;14.44;70.76;99290.03;5038393;28;20197;-72
2023/04/13 07:43:00;;;;;;;5.50;2.00;;;;;;;14.40;70.46;99286.69;5031861;28;20198;-73
2023/04/13 07:45:29;;;;;;;2.73;1.57;;;;;;;14.38;70.75;99293.69;5040349;28;20694;-73
2023/04/13 07:47:54;;;;;;;5.10;1.83;;;;;;;14.30;70.92;99294.00;5042956;28;20288;-73
2023/04/13 07:50:20;;;;;;;4.63;1.40;;;;;;;14.20;71.83;99299.66;5034116;28;20278;-74
2023/04/13 07:52:45;;;;;;;3.00;1.60;;;;;;;14.09;70.96;99294.88;5050284;28;20185;-72
2023/04/13 07:55:10;;;;;;;4.97;1.63;;;;;;;14.01;71.56;99306.41;5039660;28;20222;-73
2023/04/13 07:57:35;;;;;;;4.47;1.97;;;;;;;14.09;71.17;99307.88;5037819;28;20179;-74
2023/04/13 08:00:03;;;;;;;4.10;1.70;;;;;;;14.10;71.25;99313.03;5037677;28;20197;-73
2023/04/13 08:02:29;;;;;;;3.20;1.50;;;;;;;14.07;71.92;99326.13;5036686;28;20214;-73
2023/04/13 08:04:54;;;;;;;5.73;2.30;;;;;;;14.08;72.17;99321.81;5038347;28;20210;-74
2023/04/13 08:07:21;;;;;;;4.30;1.77;;;;;;;14.05;72.01;99330.59;5038719;28;20200;-72
2023/04/13 08:09:48;;;;;;;4.60;1.77;;;;;;;13.86;71.41;99327.81;5035255;28;20758;-71
2023/04/13 08:12:13;;;;;;;4.17;1.63;;;;;;;13.62;71.78;99326.97;5049235;28;20209;-74
2023/04/13 08:14:39;;;;;;;3.70;1.63;;;;;;;13.32;72.15;99334.97;5032151;28;20228;-74
2023/04/13 08:17:04;;;;;;;4.37;1.90;;;;;;;13.07;72.98;99338.44;5035015;28;20184;-74
2023/04/13 08:19:31;;;;;;;4.83;2.00;;;;;;;12.89;74.31;99330.34;5029012;28;20762;-73
2023/04/13 08:21:57;;;;;;;3.60;1.63;;;;;;;12.73;74.60;99339.56;5032071;28;20709;-73
2023/04/13 08:24:23;;;;;;;3.40;1.73;;;;;;;12.57;75.19;99337.47;5032610;28;20213;-72
2023/04/13 08:26:51;;;;;;;2.83;1.50;;;;;;;12.45;75.99;99332.69;5037964;28;20200;-73
2023/04/13 08:29:16;;;;;;;4.70;2.40;;;;;;;12.35;76.12;99327.78;5030776;28;20225;-72
2023/04/13 08:31:41;;;;;;;4.30;1.77;;;;;;;12.33;76.09;99331.31;5030195;28;20300;-73
2023/04/13 08:34:09;;;;;;;5.27;2.10;;;;;;;12.47;76.28;99333.47;5035470;28;20188;-74
2023/04/13 08:36:35;;;;;;;3.80;1.90;;;;;;;12.73;76.27;99342.16;5037915;28;20185;-74
2023/04/13 08:39:00;;;;;;;4.50;1.70;;;;;;;12.93;75.42;99349.31;5037305;28;20201;-73
2023/04/13 08:41:26;;;;;;;4.80;1.80;;;;;;;12.98;74.91;99352.56;5031645;28;20191;-73
2023/04/13 08:43:53;;;;;;;3.67;1.80;;;;;;;12.99;74.57;99351.66;5035826;28;20235;-73
2023/04/13 08:46:19;;;;;;;4.10;1.90;;;;;;;13.03;74.89;99352.41;5040184;28;20205;-72
2023/04/13 08:48:47;;;;;;;4.10;1.83;;;;;;;12.93;75.28;99357.94;5044868;28;20179;-73
2023/04/13 08:51:13;;;;;;;5.60;2.10;;;;;;;12.85;76.08;99353.88;5031179;28;20196;-74
2023/04/13 08:53:39;;;;;;;4.90;1.83;;;;;;;12.76;76.75;99358.50;5045655;28;20246;-71
2023/04/13 08:56:08;;;;;;;6.13;2.20;;;;;;;12.72;77.35;99353.44;5038767;28;20256;-72
2023/04/13 08:58:34;;;;;;;4.17;2.10;;;;;;;12.65;78.27;99369.22;5036156;28;20202;-74
2023/04/13 09:01:00;;;;;;;5.23;1.90;;;;;;;12.52;79.74;99374.84;5037557;28;20199;-75
2023/04/13 09:03:32;;;;;;;6.00;2.13;;;;;;;12.33;80.97;99375.41;5037352;28;20193;-74
2023/04/13 09:06:07;;;;;;;5.93;2.00;;;;;;;12.18;82.43;99381.94;5045929;28;20297;-75
2023/04/13 09:08:36;;;;;;;4.13;1.70;;;;;;;12.00;83.47;99388.53;5046427;28;20290;-72
2023/04/13 09:11:02;;;;;;;5.93;1.90;;;;;;;11.95;84.62;99386.00;5044496;28;20223;-73
2023/04/13 09:13:28;;;;;;;4.07;1.93;;;;;;;12.07;85.04;99384.84;5034767;28;20329;-72
2023/04/13 09:15:53;;;;;;;5.73;2.20;;;;;;;12.32;85.10;99391.91;5044963;28;20829;-72
2023/04/13 09:18:19;;;;;;;3.53;2.20;;;;;;;12.49;85.06;99387.00;5047029;28;20183;-73
2023/04/13 09:20:58;;;;;;;3.63;1.87;;;;;;;12.75;84.99;99381.91;5045457;28;20212;-73
2023/04/13 09:23:24;;;;;;;3.10;1.87;;;;;;;12.90;85.04;99383.16;5049502;28;20186;-75
2023/04/13 09:26:02;;;;;;;4.57;2.30;;;;;;;13.07;85.07;99392.97;5034729;28;20200;-73
2023/04/13 09:28:29;;;;;;;3.43;1.70;;;;;;;13.18;84.99;99393.44;5033802;28;20228;-72
2023/04/13 09:31:02;;;;;;;4.10;1.90;;;;;;;13.37;84.56;99401.47;5045286;28;20184;-73
2023/04/13 09:33:33;;;;;;;7.37;2.43;;;;;;;13.46;84.67;99402.09;5042346;28;20178;-73
2023/04/13 09:36:08;;;;;;;4.23;2.27;;;;;;;13.44;84.84;99394.34;5044926;28;20212;-72
2023/04/13 09:38:33;;;;;;;3.87;2.43;;;;;;;13.55;85.18;99399.16;5041858;28;20494;-73
2023/04/13 09:40:59;;;;;;;4.67;2.47;;;;;;;13.79;85.34;99405.22;5044509;28;20217;-76
2023/04/13 09:43:33;;;;;;;4.87;3.00;;;;;;;14.08;84.70;99405.88;5040463;28;20277;-74
2023/04/13 09:45:59;;;;;;;5.80;3.80;;;;;;;14.20;84.62;99404.59;5030241;28;20364;-75
2023/04/13 09:48:25;;;;;;;7.07;3.77;;;;;;;14.16;84.62;99405.59;5038953;28;20921;-72
2023/04/13 09:50:58;;;;;;;4.13;3.20;;;;;;;14.15;84.28;99411.72;5031114;28;20202;-72
2023/04/13 09:53:24;;;;;;;4.50;2.80;;;;;;;14.13;83.75;99413.53;5035497;28;20176;-73
2023/04/13 09:55:57;;;;;;;6.27;3.30;;;;;;;14.03;83.20;99410.44;5032506;28;20246;-73
2023/04/13 09:58:23;;;;;;;4.70;2.97;;;;;;;13.97;83.61;99421.91;5037475;28;20185;-72
2023/04/13 10:00:49;;;;;;;4.97;2.83;;;;;;;13.89;83.13;99420.50;5045568;28;20636;-73
2023/04/13 10:03:17;;;;;;;4.70;3.13;;;;;;;13.84;83.48;99416.31;5042572;28;20218;-72
2023/04/13 10:05:43;;;;;;;5.67;3.17;;;;;;;13.89;83.89;99418.75;5035387;28;20679;-74
2023/04/13 10:08:09;;;;;;;3.37;2.33;;;;;;;13.88;83.84;99401.44;5044957;28;20210;-73
2023/04/13 10:10:35;;;;;;;5.37;2.40;;;;;;;13.93;84.40;99403.84;5037549;28;20239;-71
2023/04/13 10:13:09;;;;;;;6.23;2.17;;;;;;;14.10;85.00;99400.66;5035462;28;20201;-73
2023/04/13 10:16:01;;;;;;;4.83;2.10;;;;;;;14.27;83.99;99398.25;5048821;28;20228;-74
2023/04/13 10:18:41;;;;;;;6.67;2.60;;;;;;;14.52;82.76;99401.66;5031399;28;20194;-75
2023/04/13 10:21:07;;;;;;;5.63;2.47;;;;;;;14.70;81.97;99393.13;5033968;28;20198;-73
2023/04/13 10:23:33;;;;;;;4.27;2.53;;;;;;;14.86;81.75;99397.69;5041428;28;20180;-74
2023/04/13 10:26:00;;;;;;;6.17;2.40;;;;;;;15.04;80.84;99396.94;5031637;28;20222;-75
2023/04/13 10:28:26;;;;;;;5.07;2.40;;;;;;;15.26;80.48;99397.78;5040568;28;20210;-74
2023/04/13 10:30:53;;;;;;;4.13;2.20;;;;;;;15.36;79.97;99397.34;5032224;28;20226;-74
2023/04/13 10:33:19;;;;;;;5.43;2.87;;;;;;;15.33;79.70;99397.47;5030288;28;20190;-73
2023/04/13 10:36:00;;;;;;;5.63;2.23;;;;;;;15.24;77.73;99401.31;5033439;28;20261;-75
2023/04/13 10:38:26;;;;;;;5.53;2.47;;;;;;;14.98;78.00;99402.41;5030872;28;20199;-75
2023/04/13 10:40:51;;;;;;;5.67;2.70;;;;;;;14.80;78.81;99393.59;5034849;28;20196;-75
2023/04/13 10:43:30;;;;;;;7.17;2.27;;;;;;;14.70;79.20;99390.50;5031187;28;20947;-74
2023/04/13 10:46:07;;;;;;;3.97;2.03;;;;;;;14.73;79.33;99381.75;5039484;28;20769;-76
2023/04/13 10:48:33;;;;;;;6.00;2.53;;;;;;;14.87;79.33;99378.56;5039181;28;20211;-76
2023/04/13 10:50:59;;;;;;;5.67;2.80;;;;;;;15.12;79.23;99380.16;5028433;28;21009;-72
2023/04/13 10:53:27;;;;;;;3.23;1.87;;;;;;;15.35;78.07;99369.56;5025302;28;20199;-75
2023/04/13 10:55:52;;;;;;;5.47;2.63;;;;;;;15.65;78.31;99378.75;5029155;28;20227;-72
2023/04/13 10:58:17;;;;;;;5.93;2.73;;;;;;;15.75;78.06;99372.19;5036679;28;20659;-71
2023/04/13 11:00:45;;;;;;;5.00;2.97;;;;;;;15.80;78.11;99375.44;5034036;28;20206;-73
2023/04/13 11:03:16;;;;;;;5.17;2.90;;;;;;;15.97;77.80;99376.44;5031374;28;20230;-74
2023/04/13 11:05:42;;;;;;;4.83;2.10;;;;;;;16.24;76.87;99365.66;5034190;28;20607;-74
2023/04/13 11:08:08;;;;;;;2.97;2.00;;;;;;;16.33;75.50;99370.44;5037193;28;20226;-72
2023/04/13 11:10:33;;;;;;;6.07;2.83;;;;;;;16.30;75.27;99367.97;5036909;28;20190;-74
2023/04/13 11:12:59;;;;;;;3.90;2.77;;;;;;;16.21;75.28;99366.63;5041630;28;20621;-75
2023/04/13 11:15:29;;;;;;;5.07;2.80;;;;;;;16.17;74.31;99357.25;5028629;28;20207;-73
2023/04/13 11:17:57;;;;;;;3.27;2.33;;;;;;;16.11;73.65;99360.97;5032670;28;20838;-73
2023/04/13 11:20:33;;;;;;;3.53;2.73;;;;;;;16.05;73.67;99361.28;5034216;28;20192;-72
2023/04/13 11:23:02;;;;;;;4.70;2.30;;;;;;;16.06;73.49;99355.16;5034507;28;20191;-72
2023/04/13 11:25:28;;;;;;;4.77;2.97;;;;;;;16.02;73.93;99360.59;5036144;28;20203;-72
2023/04/13 11:27:59;;;;;;;4.80;2.50;;;;;;;15.81;73.82;99363.22;5038039;28;20216;-72
2023/04/13 11:30:25;;;;;;;3.10;1.80;;;;;;;15.55;73.91;99360.03;5032673;28;20188;-73
2023/04/13 11:32:54;;;;;;;3.50;2.70;;;;;;;15.37;74.97;99354.72;5030550;28;20195;-73
2023/04/13 11:35:22;;;;;;;6.97;4.17;;;;;;;15.24;75.58;99357.00;5036251;28;20229;-71